»·PEaware :: N5310H L52-L88

N5310H :: L52-L88

FLIGHT INFORMATION

Flight Status: Arrived
Operator: Privately registered:
United States
More flights under this callsign
Pilot: Alexander M. (19327)
Aircraft: CESSNA 152 AEROBAT
(C152)
More flights by this aircraft type
Origin: L52 Oceano Co
United States
Destination: L88 New Cuyama
United States
More flights between these airports :: More routes between these airports
Route: DCT
File this flight plan on PilotEdge
Remarks: Pilotedge CAT-01 Rating...on stream! twitch.tv / allaboutflight
Altitude:
(Current/Filed)
6,500ft
Speed:
(Current/Filed)
110kts
Departed: 09-Oct-18 05:26 PM
Arrived: 09-Oct-18 05:58 PM
Distance/Time
Traveled:
47nm/0:32
Distance/Time
To Go:
Arrived

Flight Plot

Page will automatically refresh every two minutes.


Map Options




Map Legend


Flown Route
Filed Route
Departure Airport
Arrival Airport
Navaid (VOR, NDB)
Fix

Horizontal Profiles

Position Reports

Time Latitude Longitude Heading Altitude Ground
Speed
09-Oct-18 17:13 35.103452 -120.624821 213 17ft 0kts
09-Oct-18 17:14 35.103452 -120.624821 214 17ft 0kts
09-Oct-18 17:15 35.103452 -120.624821 214 17ft 0kts
09-Oct-18 17:16 35.103452 -120.624821 214 17ft 0kts
09-Oct-18 17:17 35.103452 -120.624821 213 17ft 0kts
09-Oct-18 17:18 35.103452 -120.624821 213 17ft 0kts
09-Oct-18 17:19 35.103452 -120.624821 213 17ft 0kts
09-Oct-18 17:20 35.103452 -120.624821 213 17ft 0kts
09-Oct-18 17:21 35.103452 -120.624821 214 17ft 0kts
09-Oct-18 17:22 35.103452 -120.624821 214 17ft 0kts
09-Oct-18 17:23 35.103445 -120.624827 215 17ft 1kts
09-Oct-18 17:24 35.102617 -120.624051 210 17ft 7kts
09-Oct-18 17:25 35.100663 -120.621668 122 17ft 13kts
09-Oct-18 17:26 35.099528 -120.619571 296 17ft 0kts
09-Oct-18 17:27 35.099941 -120.619394 300 17ft 9kts
09-Oct-18 17:28 35.100791 -120.634959 211 544ft 69kts
09-Oct-18 17:29 35.089350 -120.617236 104 1289ft 74kts
09-Oct-18 17:30 35.084084 -120.598155 112 1900ft 75kts
09-Oct-18 17:31 35.075799 -120.575908 115 2617ft 76kts
09-Oct-18 17:32 35.065369 -120.553228 117 3269ft 77kts
09-Oct-18 17:33 35.055599 -120.530092 84 3909ft 76kts
09-Oct-18 17:34 35.052600 -120.503757 89 4434ft 92kts
09-Oct-18 17:35 35.050849 -120.471075 82 4916ft 95kts
09-Oct-18 17:36 35.050168 -120.438974 91 5367ft 99kts
09-Oct-18 17:37 35.046755 -120.404433 92 5778ft 102kts
09-Oct-18 17:38 35.041173 -120.370374 104 6158ft 104kts
09-Oct-18 17:39 35.032638 -120.342658 105 6426ft 105kts
09-Oct-18 17:40 35.027026 -120.308866 94 6598ft 107kts
09-Oct-18 17:41 35.022302 -120.271811 92 6537ft 112kts
09-Oct-18 17:42 35.016813 -120.234431 101 6483ft 112kts
09-Oct-18 17:43 35.012861 -120.197578 88 6479ft 108kts
09-Oct-18 17:44 35.009667 -120.160648 91 6472ft 109kts
09-Oct-18 17:45 35.007571 -120.123506 88 6467ft 110kts
09-Oct-18 17:46 35.001009 -120.087045 114 6466ft 112kts
09-Oct-18 17:47 34.993845 -120.050683 93 6468ft 111kts
09-Oct-18 17:48 34.989503 -120.013370 100 6464ft 111kts
09-Oct-18 17:49 34.982639 -119.979445 113 6468ft 110kts
09-Oct-18 17:50 34.976384 -119.943050 95 6452ft 112kts
09-Oct-18 17:51 34.975350 -119.905149 95 6458ft 111kts
09-Oct-18 17:52 34.965431 -119.869752 115 6461ft 110kts
09-Oct-18 17:53 34.952037 -119.833159 119 5950ft 120kts
09-Oct-18 17:54 34.938438 -119.805356 128 5387ft 119kts
09-Oct-18 17:55 34.920319 -119.771928 112 4811ft 120kts
09-Oct-18 17:56 34.924228 -119.733291 67 4204ft 107kts
09-Oct-18 17:57 34.933859 -119.703851 84 3311ft 86kts
09-Oct-18 17:58 34.928471 -119.678452 116 2933ft 73kts
09-Oct-18 17:59 34.935765 -119.670202 270 2386ft 55kts
09-Oct-18 18:00 34.939828 -119.685281 296 2175ft 27kts
09-Oct-18 18:01 34.941904 -119.690339 292 2155ft 14kts
09-Oct-18 18:02 34.943348 -119.691224 21 2153ft 0kts
09-Oct-18 18:03 34.943348 -119.691224 21 2153ft 0kts

Navigation Log

Ident Type
Flight plan parsing failed, navigation log unavailable